sensor_id;sensor_type;location;lat;lon;timestamp;pressure;altitude;pressure_sealevel;temperature;humidity
19795;BME280;10057;59.402;17.866;2023-11-19T00:01:50;101877.84;;;-4.03;78.25
19795;BME280;10057;59.402;17.866;2023-11-19T00:04:17;101878.63;;;-4.04;78.50
19795;BME280;10057;59.402;17.866;2023-11-19T00:06:44;101876.03;;;-4.04;78.53
19795;BME280;10057;59.402;17.866;2023-11-19T00:09:11;101868.38;;;-4.01;78.48
19795;BME280;10057;59.402;17.866;2023-11-19T00:11:38;101859.81;;;-4.00;78.64
19795;BME280;10057;59.402;17.866;2023-11-19T00:14:05;101854.69;;;-3.98;78.87
19795;BME280;10057;59.402;17.866;2023-11-19T00:16:35;101851.19;;;-3.99;78.72
19795;BME280;10057;59.402;17.866;2023-11-19T00:19:01;101848.66;;;-3.97;78.87
19795;BME280;10057;59.402;17.866;2023-11-19T00:21:30;101848.59;;;-3.99;78.30
19795;BME280;10057;59.402;17.866;2023-11-19T00:23:59;101849.53;;;-3.97;78.43
19795;BME280;10057;59.402;17.866;2023-11-19T00:26:26;101841.75;;;-3.97;78.31
19795;BME280;10057;59.402;17.866;2023-11-19T00:28:52;101842.59;;;-3.98;79.27
19795;BME280;10057;59.402;17.866;2023-11-19T00:31:19;101835.91;;;-3.93;78.58
19795;BME280;10057;59.402;17.866;2023-11-19T00:33:46;101837.78;;;-3.89;78.59
19795;BME280;10057;59.402;17.866;2023-11-19T00:36:16;101832.63;;;-3.87;78.53
19795;BME280;10057;59.402;17.866;2023-11-19T00:38:42;101824.84;;;-3.87;78.62
19795;BME280;10057;59.402;17.866;2023-11-19T00:41:09;101826.56;;;-3.88;78.60
19795;BME280;10057;59.402;17.866;2023-11-19T00:43:36;101825.69;;;-3.88;78.58
19795;BME280;10057;59.402;17.866;2023-11-19T00:46:03;101818.78;;;-3.88;78.41
19795;BME280;10057;59.402;17.866;2023-11-19T00:48:31;101813.59;;;-3.88;78.60
19795;BME280;10057;59.402;17.866;2023-11-19T00:50:58;101816.28;;;-3.86;78.56
19795;BME280;10057;59.402;17.866;2023-11-19T00:53:25;101818.91;;;-3.85;78.25
19795;BME280;10057;59.402;17.866;2023-11-19T00:55:51;101808.53;;;-3.85;78.47
19795;BME280;10057;59.402;17.866;2023-11-19T00:58:18;101812.84;;;-3.85;78.49
19795;BME280;10057;59.402;17.866;2023-11-19T01:00:44;101806.81;;;-3.84;78.44
19795;BME280;10057;59.402;17.866;2023-11-19T01:03:11;101797.28;;;-3.85;78.25
19795;BME280;10057;59.402;17.866;2023-11-19T01:05:38;101793.84;;;-3.84;79.01
19795;BME280;10057;59.402;17.866;2023-11-19T01:08:05;101795.63;;;-3.83;78.27
19795;BME280;10057;59.402;17.866;2023-11-19T01:10:32;101798.41;;;-3.78;78.60
19795;BME280;10057;59.402;17.866;2023-11-19T01:13:00;101805.34;;;-3.77;78.49
19795;BME280;10057;59.402;17.866;2023-11-19T01:15:27;101794.94;;;-3.79;78.28
19795;BME280;10057;59.402;17.866;2023-11-19T01:17:53;101799.28;;;-3.78;78.47
19795;BME280;10057;59.402;17.866;2023-11-19T01:20:20;101793.34;;;-3.75;78.82
19795;BME280;10057;59.402;17.866;2023-11-19T01:22:47;101787.31;;;-3.74;78.78
19795;BME280;10057;59.402;17.866;2023-11-19T01:25:15;101780.41;;;-3.74;78.61
19795;BME280;10057;59.402;17.866;2023-11-19T01:27:42;101781.28;;;-3.73;78.33
19795;BME280;10057;59.402;17.866;2023-11-19T01:30:09;101775.31;;;-3.72;78.29
19795;BME280;10057;59.402;17.866;2023-11-19T01:32:39;101771.88;;;-3.71;78.20
19795;BME280;10057;59.402;17.866;2023-11-19T01:35:07;101765.81;;;-3.72;78.29
19795;BME280;10057;59.402;17.866;2023-11-19T01:37:37;101751.88;;;-3.74;78.69
19795;BME280;10057;59.402;17.866;2023-11-19T01:40:04;101763.03;;;-3.76;78.71
19795;BME280;10057;59.402;17.866;2023-11-19T01:42:39;101753.38;;;-3.81;78.37
19795;BME280;10057;59.402;17.866;2023-11-19T01:45:07;101756.91;;;-3.78;78.42
19795;BME280;10057;59.402;17.866;2023-11-19T01:47:36;101750.72;;;-3.82;78.62
19795;BME280;10057;59.402;17.866;2023-11-19T01:50:06;101750.78;;;-3.81;78.54
19795;BME280;10057;59.402;17.866;2023-11-19T01:52:37;101752.47;;;-3.81;78.59
19795;BME280;10057;59.402;17.866;2023-11-19T01:55:06;101749.84;;;-3.83;78.24
19795;BME280;10057;59.402;17.866;2023-11-19T01:57:35;101741.06;;;-3.86;78.61
19795;BME280;10057;59.402;17.866;2023-11-19T02:00:05;101743.72;;;-3.85;78.32
19795;BME280;10057;59.402;17.866;2023-11-19T02:02:32;101739.28;;;-3.87;78.31
19795;BME280;10057;59.402;17.866;2023-11-19T02:04:59;101734.06;;;-3.89;78.06
19795;BME280;10057;59.402;17.866;2023-11-19T02:07:26;101736.69;;;-3.87;78.41
19795;BME280;10057;59.402;17.866;2023-11-19T02:09:53;101744.44;;;-3.89;78.27
19795;BME280;10057;59.402;17.866;2023-11-19T02:12:20;101729.63;;;-3.91;78.27
19795;BME280;10057;59.402;17.866;2023-11-19T02:14:47;101719.38;;;-3.88;78.59
19795;BME280;10057;59.402;17.866;2023-11-19T02:17:29;101717.63;;;-3.89;78.01
19795;BME280;10057;59.402;17.866;2023-11-19T02:20:00;101719.38;;;-3.88;78.34
19795;BME280;10057;59.402;17.866;2023-11-19T02:22:27;101709.84;;;-3.89;78.78
19795;BME280;10057;59.402;17.866;2023-11-19T02:24:59;101702.81;;;-3.92;78.53
19795;BME280;10057;59.402;17.866;2023-11-19T02:27:48;101704.56;;;-3.91;78.12
19795;BME280;10057;59.402;17.866;2023-11-19T02:30:17;101696.75;;;-3.92;78.51
19795;BME280;10057;59.402;17.866;2023-11-19T02:32:44;101692.44;;;-3.92;78.40
19795;BME280;10057;59.402;17.866;2023-11-19T02:35:10;101692.38;;;-3.93;78.36
19795;BME280;10057;59.402;17.866;2023-11-19T02:37:38;101699.16;;;-3.97;78.49
19795;BME280;10057;59.402;17.866;2023-11-19T02:40:05;101693.09;;;-3.97;78.55
19795;BME280;10057;59.402;17.866;2023-11-19T02:42:35;101688.78;;;-3.97;78.44
19795;BME280;10057;59.402;17.866;2023-11-19T02:45:02;101688.78;;;-3.97;78.47
19795;BME280;10057;59.402;17.866;2023-11-19T02:47:33;101686.28;;;-3.95;78.23
19795;BME280;10057;59.402;17.866;2023-11-19T02:50:00;101684.50;;;-3.96;78.52
19795;BME280;10057;59.402;17.866;2023-11-19T02:52:27;101679.34;;;-3.96;78.47
19795;BME280;10057;59.402;17.866;2023-11-19T02:54:53;101685.41;;;-3.96;78.30
19795;BME280;10057;59.402;17.866;2023-11-19T02:57:20;101679.34;;;-3.96;78.42
19795;BME280;10057;59.402;17.866;2023-11-19T02:59:48;101670.72;;;-3.95;78.27
19795;BME280;10057;59.402;17.866;2023-11-19T03:02:15;101665.41;;;-3.98;78.40
19795;BME280;10057;59.402;17.866;2023-11-19T03:04:44;101669.72;;;-3.99;78.53
19795;BME280;10057;59.402;17.866;2023-11-19T03:07:12;101670.31;;;-4.06;78.53
19795;BME280;10057;59.402;17.866;2023-11-19T03:09:40;101676.31;;;-4.07;78.51
19795;BME280;10057;59.402;17.866;2023-11-19T03:12:07;101660.75;;;-4.07;78.42
19795;BME280;10057;59.402;17.866;2023-11-19T03:14:34;101654.56;;;-4.11;78.43
19795;BME280;10057;59.402;17.866;2023-11-19T03:17:03;101660.31;;;-4.19;78.17
19795;BME280;10057;59.402;17.866;2023-11-19T03:19:31;101661.03;;;-4.23;78.42
19795;BME280;10057;59.402;17.866;2023-11-19T03:21:58;101653.16;;;-4.26;78.18
19795;BME280;10057;59.402;17.866;2023-11-19T03:24:26;101650.47;;;-4.28;78.78
19795;BME280;10057;59.402;17.866;2023-11-19T03:26:53;101655.66;;;-4.28;78.60
19795;BME280;10057;59.402;17.866;2023-11-19T03:29:19;101644.38;;;-4.30;78.22
19795;BME280;10057;59.402;17.866;2023-11-19T03:31:46;101645.25;;;-4.30;78.71
19795;BME280;10057;59.402;17.866;2023-11-19T03:34:12;101644.25;;;-4.33;78.29
19795;BME280;10057;59.402;17.866;2023-11-19T03:36:39;101638.00;;;-4.38;78.29
19795;BME280;10057;59.402;17.866;2023-11-19T03:39:06;101640.47;;;-4.41;78.59
19795;BME280;10057;59.402;17.866;2023-11-19T03:41:33;101646.50;;;-4.42;78.71
19795;BME280;10057;59.402;17.866;2023-11-19T03:44:02;101642.97;;;-4.44;78.36
19795;BME280;10057;59.402;17.866;2023-11-19T03:46:29;101631.59;;;-4.48;78.31
19795;BME280;10057;59.402;17.866;2023-11-19T03:48:57;101628.19;;;-4.47;78.27
19795;BME280;10057;59.402;17.866;2023-11-19T03:51:23;101621.00;;;-4.54;78.30
19795;BME280;10057;59.402;17.866;2023-11-19T03:53:50;101620.03;;;-4.58;78.11
19795;BME280;10057;59.402;17.866;2023-11-19T03:56:16;101622.59;;;-4.58;78.55
19795;BME280;10057;59.402;17.866;2023-11-19T03:58:43;101620.91;;;-4.57;78.82
19795;BME280;10057;59.402;17.866;2023-11-19T04:01:13;101623.53;;;-4.56;78.57
19795;BME280;10057;59.402;17.866;2023-11-19T04:03:40;101623.53;;;-4.56;78.69
19795;BME280;10057;59.402;17.866;2023-11-19T04:06:17;101617.44;;;-4.58;78.32
19795;BME280;10057;59.402;17.866;2023-11-19T04:08:43;101613.94;;;-4.58;78.70
19795;BME280;10057;59.402;17.866;2023-11-19T04:11:11;101612.25;;;-4.58;78.25
19795;BME280;10057;59.402;17.866;2023-11-19T04:13:37;101612.06;;;-4.62;78.70
19795;BME280;10057;59.402;17.866;2023-11-19T04:16:04;101606.00;;;-4.63;78.17
19795;BME280;10057;59.402;17.866;2023-11-19T04:18:31;101594.72;;;-4.65;78.31
19795;BME280;10057;59.402;17.866;2023-11-19T04:20:59;101600.56;;;-4.69;77.92
19795;BME280;10057;59.402;17.866;2023-11-19T04:23:26;101591.81;;;-4.72;78.44
19795;BME280;10057;59.402;17.866;2023-11-19T04:25:52;101593.47;;;-4.74;77.97
19795;BME280;10057;59.402;17.866;2023-11-19T04:28:19;101586.38;;;-4.79;77.96
19795;BME280;10057;59.402;17.866;2023-11-19T04:30:46;101592.41;;;-4.80;78.55
19795;BME280;10057;59.402;17.866;2023-11-19T04:33:13;101586.28;;;-4.82;77.64
19795;BME280;10057;59.402;17.866;2023-11-19T04:35:39;101582.63;;;-4.87;77.99
19795;BME280;10057;59.402;17.866;2023-11-19T04:38:06;101580.69;;;-4.92;78.61
19795;BME280;10057;59.402;17.866;2023-11-19T04:40:33;101578.03;;;-4.94;78.33
19795;BME280;10057;59.402;17.866;2023-11-19T04:43:00;101577.22;;;-4.93;78.35
19795;BME280;10057;59.402;17.866;2023-11-19T04:45:27;101574.63;;;-4.93;78.61
19795;BME280;10057;59.402;17.866;2023-11-19T04:47:53;101574.69;;;-4.91;78.50
19795;BME280;10057;59.402;17.866;2023-11-19T04:50:20;101574.75;;;-4.90;78.92
19795;BME280;10057;59.402;17.866;2023-11-19T04:52:48;101567.81;;;-4.91;78.60
19795;BME280;10057;59.402;17.866;2023-11-19T04:55:14;101568.75;;;-4.89;78.17
19795;BME280;10057;59.402;17.866;2023-11-19T04:57:41;101555.97;;;-4.84;78.75
19795;BME280;10057;59.402;17.866;2023-11-19T05:00:10;101544.91;;;-4.80;78.93
19795;BME280;10057;59.402;17.866;2023-11-19T05:02:40;101539.03;;;-4.76;78.42
19795;BME280;10057;59.402;17.866;2023-11-19T05:05:07;101535.66;;;-4.73;78.62
19795;BME280;10057;59.402;17.866;2023-11-19T05:07:35;101534.84;;;-4.72;78.07
19795;BME280;10057;59.402;17.866;2023-11-19T05:10:02;101533.91;;;-4.74;78.62
19795;BME280;10057;59.402;17.866;2023-11-19T05:12:30;101530.38;;;-4.77;78.17
19795;BME280;10057;59.402;17.866;2023-11-19T05:14:58;101517.44;;;-4.77;78.24
19795;BME280;10057;59.402;17.866;2023-11-19T05:17:26;101518.31;;;-4.76;78.55
19795;BME280;10057;59.402;17.866;2023-11-19T05:19:52;101517.50;;;-4.75;78.44
19795;BME280;10057;59.402;17.866;2023-11-19T05:22:20;101521.78;;;-4.76;78.41
19795;BME280;10057;59.402;17.866;2023-11-19T05:24:47;101530.38;;;-4.77;78.64
19795;BME280;10057;59.402;17.866;2023-11-19T05:27:16;101527.88;;;-4.75;78.64
19795;BME280;10057;59.402;17.866;2023-11-19T05:29:42;101509.66;;;-4.77;78.37
19795;BME280;10057;59.402;17.866;2023-11-19T05:32:10;101504.59;;;-4.73;78.15
19795;BME280;10057;59.402;17.866;2023-11-19T05:34:36;101509.78;;;-4.73;78.34
19795;BME280;10057;59.402;17.866;2023-11-19T05:37:16;101504.56;;;-4.75;78.27
19795;BME280;10057;59.402;17.866;2023-11-19T05:39:44;101505.34;;;-4.76;78.62
19795;BME280;10057;59.402;17.866;2023-11-19T05:42:11;101502.84;;;-4.74;78.74
19795;BME280;10057;59.402;17.866;2023-11-19T05:44:38;101513.31;;;-4.71;78.10
19795;BME280;10057;59.402;17.866;2023-11-19T05:47:07;101504.59;;;-4.73;78.44
19795;BME280;10057;59.402;17.866;2023-11-19T05:49:34;101501.13;;;-4.74;77.99
19795;BME280;10057;59.402;17.866;2023-11-19T05:52:00;101494.13;;;-4.77;78.03
19795;BME280;10057;59.402;17.866;2023-11-19T05:54:29;101496.59;;;-4.80;77.88
19795;BME280;10057;59.402;17.866;2023-11-19T05:56:58;101492.25;;;-4.81;78.25
19795;BME280;10057;59.402;17.866;2023-11-19T05:59:25;101492.25;;;-4.81;78.04
19795;BME280;10057;59.402;17.866;2023-11-19T06:01:52;101492.25;;;-4.81;78.19
19795;BME280;10057;59.402;17.866;2023-11-19T06:04:19;101494.84;;;-4.81;78.52
19795;BME280;10057;59.402;17.866;2023-11-19T06:06:45;101497.44;;;-4.81;78.53
19795;BME280;10057;59.402;17.866;2023-11-19T06:09:12;101497.44;;;-4.81;78.08
19795;BME280;10057;59.402;17.866;2023-11-19T06:11:40;101489.56;;;-4.84;77.94
19795;BME280;10057;59.402;17.866;2023-11-19T06:14:06;101489.59;;;-4.82;78.47
19795;BME280;10057;59.402;17.866;2023-11-19T06:16:33;101484.41;;;-4.82;78.43
19795;BME280;10057;59.402;17.866;2023-11-19T06:19:00;101483.63;;;-4.81;78.32
19795;BME280;10057;59.402;17.866;2023-11-19T06:21:27;101476.84;;;-4.78;78.33
19795;BME280;10057;59.402;17.866;2023-11-19T06:23:54;101474.28;;;-4.76;78.44
19795;BME280;10057;59.402;17.866;2023-11-19T06:26:21;101469.13;;;-4.76;78.48
19795;BME280;10057;59.402;17.866;2023-11-19T06:28:48;101476.06;;;-4.75;78.63
19795;BME280;10057;59.402;17.866;2023-11-19T06:31:15;101482.03;;;-4.78;78.54
19795;BME280;10057;59.402;17.866;2023-11-19T06:33:43;101482.91;;;-4.77;78.12
19795;BME280;10057;59.402;17.866;2023-11-19T06:36:09;101481.19;;;-4.77;78.62
19795;BME280;10057;59.402;17.866;2023-11-19T06:38:37;101479.53;;;-4.74;78.69
19795;BME280;10057;59.402;17.866;2023-11-19T06:41:07;101482.13;;;-4.74;78.21
19795;BME280;10057;59.402;17.866;2023-11-19T06:43:33;101478.72;;;-4.73;77.97
19795;BME280;10057;59.402;17.866;2023-11-19T06:46:03;101473.41;;;-4.77;78.49
19795;BME280;10057;59.402;17.866;2023-11-19T06:48:32;101474.38;;;-4.74;78.52
19795;BME280;10057;59.402;17.866;2023-11-19T06:51:00;101469.13;;;-4.76;78.22
19795;BME280;10057;59.402;17.866;2023-11-19T06:53:27;101470.94;;;-4.73;78.45
19795;BME280;10057;59.402;17.866;2023-11-19T06:55:54;101470.19;;;-4.71;78.32
19795;BME280;10057;59.402;17.866;2023-11-19T06:58:21;101464.19;;;-4.68;78.46
19795;BME280;10057;59.402;17.866;2023-11-19T07:00:48;101470.22;;;-4.69;78.44
19795;BME280;10057;59.402;17.866;2023-11-19T07:03:16;101461.53;;;-4.71;78.41
19795;BME280;10057;59.402;17.866;2023-11-19T07:05:43;101462.34;;;-4.72;78.17
19795;BME280;10057;59.402;17.866;2023-11-19T07:08:10;101472.78;;;-4.71;78.16
19795;BME280;10057;59.402;17.866;2023-11-19T07:10:37;101464.88;;;-4.74;77.94
19795;BME280;10057;59.402;17.866;2023-11-19T07:13:05;101463.06;;;-4.77;78.23
19795;BME280;10057;59.402;17.866;2023-11-19T07:15:32;101461.19;;;-4.81;78.47
19795;BME280;10057;59.402;17.866;2023-11-19T07:17:59;101461.91;;;-4.85;78.43
19795;BME280;10057;59.402;17.866;2023-11-19T07:20:28;101457.53;;;-4.86;78.58
19795;BME280;10057;59.402;17.866;2023-11-19T07:22:55;101460.06;;;-4.87;78.72
19795;BME280;10057;59.402;17.866;2023-11-19T07:25:24;101459.19;;;-4.88;78.48
19795;BME280;10057;59.402;17.866;2023-11-19T07:27:51;101451.31;;;-4.91;78.77
19795;BME280;10057;59.402;17.866;2023-11-19T07:30:19;101450.44;;;-4.91;78.66
19795;BME280;10057;59.402;17.866;2023-11-19T07:32:46;101441.72;;;-4.93;78.68
19795;BME280;10057;59.402;17.866;2023-11-19T07:35:12;101437.38;;;-4.94;78.29
19795;BME280;10057;59.402;17.866;2023-11-19T07:37:39;101433.09;;;-4.94;78.67
19795;BME280;10057;59.402;17.866;2023-11-19T07:40:06;101437.53;;;-4.90;78.89
19795;BME280;10057;59.402;17.866;2023-11-19T07:42:33;101441.09;;;-4.88;78.39
19795;BME280;10057;59.402;17.866;2023-11-19T07:44:59;101442.00;;;-4.86;78.51
19795;BME280;10057;59.402;17.866;2023-11-19T07:47:26;101435.06;;;-4.87;78.82
19795;BME280;10057;59.402;17.866;2023-11-19T07:49:55;101439.81;;;-4.75;79.12
19795;BME280;10057;59.402;17.866;2023-11-19T07:52:22;101442.94;;;-4.60;78.96
19795;BME280;10057;59.402;17.866;2023-11-19T07:54:48;101442.41;;;-4.51;78.49
19795;BME280;10057;59.402;17.866;2023-11-19T07:57:15;101441.47;;;-4.53;78.82
19795;BME280;10057;59.402;17.866;2023-11-19T07:59:42;101453.56;;;-4.52;78.73
19795;BME280;10057;59.402;17.866;2023-11-19T08:02:08;101443.94;;;-4.56;78.27
19795;BME280;10057;59.402;17.866;2023-11-19T08:04:35;101447.09;;;-4.65;78.34
19795;BME280;10057;59.402;17.866;2023-11-19T08:07:02;101437.44;;;-4.69;78.72
19795;BME280;10057;59.402;17.866;2023-11-19T08:09:31;101439.97;;;-4.70;78.65
19795;BME280;10057;59.402;17.866;2023-11-19T08:11:59;101448.59;;;-4.71;78.39
19795;BME280;10057;59.402;17.866;2023-11-19T08:14:25;101436.41;;;-4.74;78.47
19795;BME280;10057;59.402;17.866;2023-11-19T08:16:52;101438.91;;;-4.76;78.26
19795;BME280;10057;59.402;17.866;2023-11-19T08:19:19;101435.34;;;-4.79;78.56
19795;BME280;10057;59.402;17.866;2023-11-19T08:21:46;101431.03;;;-4.79;78.36
19795;BME280;10057;59.402;17.866;2023-11-19T08:24:12;101430.16;;;-4.79;78.79
19795;BME280;10057;59.402;17.866;2023-11-19T08:26:39;101430.16;;;-4.79;78.85
19795;BME280;10057;59.402;17.866;2023-11-19T08:29:06;101428.53;;;-4.77;78.98
19795;BME280;10057;59.402;17.866;2023-11-19T08:31:32;101422.41;;;-4.79;78.72
19795;BME280;10057;59.402;17.866;2023-11-19T08:33:59;101424.00;;;-4.83;77.97
19795;BME280;10057;59.402;17.866;2023-11-19T08:36:25;101417.06;;;-4.84;78.68
19795;BME280;10057;59.402;17.866;2023-11-19T08:38:54;101417.78;;;-4.88;78.32
19795;BME280;10057;59.402;17.866;2023-11-19T08:41:21;101421.22;;;-4.89;78.85
19795;BME280;10057;59.402;17.866;2023-11-19T08:43:48;101415.81;;;-4.95;78.20
19795;BME280;10057;59.402;17.866;2023-11-19T08:46:14;101413.94;;;-4.99;78.13
19795;BME280;10057;59.402;17.866;2023-11-19T08:48:41;101416.44;;;-5.01;78.83
19795;BME280;10057;59.402;17.866;2023-11-19T08:51:08;101410.28;;;-5.04;78.19
19795;BME280;10057;59.402;17.866;2023-11-19T08:53:35;101412.03;;;-5.03;78.91
19795;BME280;10057;59.402;17.866;2023-11-19T08:56:02;101413.81;;;-5.02;78.65
19795;BME280;10057;59.402;17.866;2023-11-19T08:58:30;101419.88;;;-5.02;78.74
19795;BME280;10057;59.402;17.866;2023-11-19T09:00:57;101416.44;;;-5.01;78.29
19795;BME280;10057;59.402;17.866;2023-11-19T09:03:25;101415.69;;;-4.98;78.51
19795;BME280;10057;59.402;17.866;2023-11-19T09:05:53;101412.97;;;-5.01;78.42
19795;BME280;10057;59.402;17.866;2023-11-19T09:08:19;101411.28;;;-5.01;78.88
19795;BME280;10057;59.402;17.866;2023-11-19T09:10:46;101409.69;;;-4.97;78.25
19795;BME280;10057;59.402;17.866;2023-11-19T09:13:13;101409.69;;;-4.97;79.00
19795;BME280;10057;59.402;17.866;2023-11-19T09:15:39;101398.72;;;-4.90;78.83
19795;BME280;10057;59.402;17.866;2023-11-19T09:18:06;101400.66;;;-4.84;79.06
19795;BME280;10057;59.402;17.866;2023-11-19T09:20:33;101401.56;;;-4.82;78.30
19795;BME280;10057;59.402;17.866;2023-11-19T09:23:05;101391.31;;;-4.79;78.89
19795;BME280;10057;59.402;17.866;2023-11-19T09:25:32;101399.16;;;-4.78;78.85
19795;BME280;10057;59.402;17.866;2023-11-19T09:28:02;101402.75;;;-4.74;78.94
19795;BME280;10057;59.402;17.866;2023-11-19T09:30:29;101395.88;;;-4.72;78.60
19795;BME280;10057;59.402;17.866;2023-11-19T09:32:55;101378.75;;;-4.68;78.81
19795;BME280;10057;59.402;17.866;2023-11-19T09:35:22;101373.69;;;-4.65;78.43
19795;BME280;10057;59.402;17.866;2023-11-19T09:37:49;101382.53;;;-4.59;78.81
19795;BME280;10057;59.402;17.866;2023-11-19T09:40:16;101380.94;;;-4.55;78.48
19795;BME280;10057;59.402;17.866;2023-11-19T09:42:44;101367.94;;;-4.57;78.16
19795;BME280;10057;59.402;17.866;2023-11-19T09:45:15;101375.56;;;-4.61;77.99
19795;BME280;10057;59.402;17.866;2023-11-19T09:47:44;101379.69;;;-4.66;78.64
19795;BME280;10057;59.402;17.866;2023-11-19T09:50:18;101377.88;;;-4.69;78.57
19795;BME280;10057;59.402;17.866;2023-11-19T09:52:46;101372.66;;;-4.70;78.62
19795;BME280;10057;59.402;17.866;2023-11-19T09:55:13;101373.56;;;-4.68;78.32
19795;BME280;10057;59.402;17.866;2023-11-19T09:57:41;101383.13;;;-4.67;78.47
19795;BME280;10057;59.402;17.866;2023-11-19T10:00:12;101378.88;;;-4.65;78.55
19795;BME280;10057;59.402;17.866;2023-11-19T10:02:43;101379.84;;;-4.62;78.78
19795;BME280;10057;59.402;17.866;2023-11-19T10:05:13;101373.88;;;-4.61;78.95
19795;BME280;10057;59.402;17.866;2023-11-19T10:07:41;101379.19;;;-4.56;78.75
19795;BME280;10057;59.402;17.866;2023-11-19T10:10:09;101369.03;;;-4.50;79.02
19795;BME280;10057;59.402;17.866;2023-11-19T10:12:40;101368.38;;;-4.44;78.73
19795;BME280;10057;59.402;17.866;2023-11-19T10:15:24;101364.19;;;-4.41;78.84
19795;BME280;10057;59.402;17.866;2023-11-19T10:17:57;101358.16;;;-4.40;78.80
19795;BME280;10057;59.402;17.866;2023-11-19T10:20:24;101357.53;;;-4.33;78.90
19795;BME280;10057;59.402;17.866;2023-11-19T10:22:54;101362.03;;;-4.27;79.08
19795;BME280;10057;59.402;17.866;2023-11-19T10:25:26;101353.47;;;-4.24;78.56
19795;BME280;10057;59.402;17.866;2023-11-19T10:27:54;101357.75;;;-4.26;78.72
19795;BME280;10057;59.402;17.866;2023-11-19T10:30:25;101360.34;;;-4.26;78.58
19795;BME280;10057;59.402;17.866;2023-11-19T10:33:12;101353.47;;;-4.24;78.92
19795;BME280;10057;59.402;17.866;2023-11-19T10:35:54;101358.66;;;-4.24;78.66
19795;BME280;10057;59.402;17.866;2023-11-19T10:38:26;101349.13;;;-4.25;78.70
19795;BME280;10057;59.402;17.866;2023-11-19T10:40:53;101352.66;;;-4.23;79.09
19795;BME280;10057;59.402;17.866;2023-11-19T10:43:21;101359.81;;;-4.16;78.93
19795;BME280;10057;59.402;17.866;2023-11-19T10:45:51;101346.84;;;-4.16;78.58
19795;BME280;10057;59.402;17.866;2023-11-19T10:48:18;101345.97;;;-4.17;78.95
19795;BME280;10057;59.402;17.866;2023-11-19T10:50:49;101347.84;;;-4.11;78.97
19795;BME280;10057;59.402;17.866;2023-11-19T10:53:19;101341.94;;;-4.07;78.83
19795;BME280;10057;59.402;17.866;2023-11-19T10:55:47;101334.25;;;-4.04;78.87
19795;BME280;10057;59.402;17.866;2023-11-19T10:58:16;101332.72;;;-3.99;78.91
19795;BME280;10057;59.402;17.866;2023-11-19T11:00:50;101337.16;;;-3.95;78.73
19795;BME280;10057;59.402;17.866;2023-11-19T11:03:19;101325.94;;;-3.94;78.79
19795;BME280;10057;59.402;17.866;2023-11-19T11:05:47;101332.19;;;-3.87;78.96
19795;BME280;10057;59.402;17.866;2023-11-19T11:08:15;101327.88;;;-3.87;78.32
19795;BME280;10057;59.402;17.866;2023-11-19T11:10:54;101331.50;;;-3.82;78.83
19795;BME280;10057;59.402;17.866;2023-11-19T11:13:25;101320.38;;;-3.79;78.35
19795;BME280;10057;59.402;17.866;2023-11-19T11:15:55;101319.41;;;-3.81;78.57
19795;BME280;10057;59.402;17.866;2023-11-19T11:18:24;101312.53;;;-3.81;78.58
19795;BME280;10057;59.402;17.866;2023-11-19T11:21:01;101303.00;;;-3.82;78.35
19795;BME280;10057;59.402;17.866;2023-11-19T11:31:37;101288.03;;;-3.90;78.42
19795;BME280;10057;59.402;17.866;2023-11-19T11:39:24;101275.44;;;-3.78;78.45
19795;BME280;10057;59.402;17.866;2023-11-19T11:55:52;101282.34;;;-3.48;78.55
19795;BME280;10057;59.402;17.866;2023-11-19T11:58:25;101265.94;;;-3.47;78.67
19795;BME280;10057;59.402;17.866;2023-11-19T12:00:52;101269.19;;;-3.54;78.24
19795;BME280;10057;59.402;17.866;2023-11-19T12:03:21;101272.66;;;-3.54;78.11
19795;BME280;10057;59.402;17.866;2023-11-19T12:05:48;101266.53;;;-3.58;78.26
19795;BME280;10057;59.402;17.866;2023-11-19T12:08:20;101265.59;;;-3.60;78.65
19795;BME280;10057;59.402;17.866;2023-11-19T12:10:54;101262.19;;;-3.59;78.40
19795;BME280;10057;59.402;17.866;2023-11-19T12:13:26;101252.69;;;-3.58;78.20
19795;BME280;10057;59.402;17.866;2023-11-19T12:18:30;101249.31;;;-3.54;78.91
19795;BME280;10057;59.402;17.866;2023-11-19T12:21:00;101247.69;;;-3.50;78.37
19795;BME280;10057;59.402;17.866;2023-11-19T12:23:29;101257.28;;;-3.48;78.52
19795;BME280;10057;59.402;17.866;2023-11-19T12:25:57;101272.88;;;-3.46;78.32
19795;BME280;10057;59.402;17.866;2023-11-19T12:28:24;101265.16;;;-3.45;78.14
19795;BME280;10057;59.402;17.866;2023-11-19T12:30:53;101267.84;;;-3.42;78.84
19795;BME280;10057;59.402;17.866;2023-11-19T12:33:20;101268.75;;;-3.40;78.24
19795;BME280;10057;59.402;17.866;2023-11-19T12:35:48;101263.63;;;-3.38;78.74
19795;BME280;10057;59.402;17.866;2023-11-19T12:38:24;101257.59;;;-3.36;78.35
19795;BME280;10057;59.402;17.866;2023-11-19T12:41:08;101254.13;;;-3.38;78.01
19795;BME280;10057;59.402;17.866;2023-11-19T12:43:38;101254.78;;;-3.45;78.17
19795;BME280;10057;59.402;17.866;2023-11-19T12:46:18;101260.63;;;-3.52;78.41
19795;BME280;10057;59.402;17.866;2023-11-19T12:48:47;101264.97;;;-3.51;78.01
19795;BME280;10057;59.402;17.866;2023-11-19T12:51:15;101259.81;;;-3.49;78.29
19795;BME280;10057;59.402;17.866;2023-11-19T12:53:49;101257.31;;;-3.46;78.34
19795;BME280;10057;59.402;17.866;2023-11-19T12:56:16;101247.81;;;-3.46;78.76
19795;BME280;10057;59.402;17.866;2023-11-19T12:58:43;101245.97;;;-3.50;78.16
19795;BME280;10057;59.402;17.866;2023-11-19T13:01:15;101252.91;;;-3.49;78.10
19795;BME280;10057;59.402;17.866;2023-11-19T13:03:42;101255.56;;;-3.47;78.23
19795;BME280;10057;59.402;17.866;2023-11-19T13:06:14;101248.66;;;-3.47;78.12
19795;BME280;10057;59.402;17.866;2023-11-19T13:08:45;101253.06;;;-3.44;78.90
19795;BME280;10057;59.402;17.866;2023-11-19T13:11:12;101250.50;;;-3.43;78.42
19795;BME280;10057;59.402;17.866;2023-11-19T13:14:03;101248.75;;;-3.44;78.02
19795;BME280;10057;59.402;17.866;2023-11-19T13:16:38;101254.81;;;-3.43;78.54